Time;durP1;ratioP1;P1;durP2;ratioP2;P2;SDS_P1;SDS_P2;PMS_P1;PMS_P2;Temp;Humidity;BMP_temperature;BMP_pressure;BME280_temperature;BME280_humidity;BME280_pressure;Samples;Min_cycle;Max_cycle;Signal;HPM_P1;HPM_P2
2023/11/23 00:01:06;;;;;;;;;;;;;;;21.05;28.95;98437.09;4974284;28;1144;-74
2023/11/23 00:03:31;;;;;;;;;;;;;;;20.89;29.38;98448.28;4974653;28;1129;-73
2023/11/23 00:05:57;;;;;;;;;;;;;;;21.08;29.11;98453.19;4957992;28;1988;-74
2023/11/23 00:08:22;;;;;;;;;;;;;;;21.08;28.92;98450.34;4958478;28;1525;-73
2023/11/23 00:10:49;;;;;;;;;;;;;;;21.15;29.16;98447.41;4977103;28;990;-73
2023/11/23 00:13:15;;;;;;;;;;;;;;;21.12;29.17;98456.75;4978027;28;993;-73
2023/11/23 00:15:40;;;;;;;;;;;;;;;21.39;28.71;98451.03;4958308;29;1024;-73
2023/11/23 00:18:06;;;;;;;;;;;;;;;21.38;28.66;98459.97;4958853;29;948;-74
2023/11/23 00:20:31;;;;;;;;;;;;;;;21.24;28.84;98455.31;4958335;29;1679;-72
2023/11/23 00:22:57;;;;;;;;;;;;;;;21.45;28.52;98468.31;4958460;28;1121;-74
2023/11/23 00:25:23;;;;;;;;;;;;;;;20.88;29.18;98466.44;4958587;29;1880;-72
2023/11/23 00:27:49;;;;;;;;;;;;;;;21.06;28.83;98472.63;4958031;29;1054;-73
2023/11/23 00:30:14;;;;;;;;;;;;;;;20.96;28.67;98465.13;4958435;29;945;-73
2023/11/23 00:32:40;;;;;;;;;;;;;;;21.03;28.82;98473.47;4975486;28;1029;-73
2023/11/23 00:35:06;;;;;;;;;;;;;;;21.28;28.54;98473.84;4980894;28;1010;-74
2023/11/23 00:37:32;;;;;;;;;;;;;;;21.24;28.60;98473.13;4964740;28;1096;-73
2023/11/23 00:39:58;;;;;;;;;;;;;;;21.62;28.36;98470.03;4932905;28;1375;-73
2023/11/23 00:42:24;;;;;;;;;;;;;;;21.30;28.68;98471.44;4964388;28;1322;-73
2023/11/23 00:44:50;;;;;;;;;;;;;;;21.33;28.89;98478.25;4932501;28;1907;-73
2023/11/23 00:47:16;;;;;;;;;;;;;;;21.29;28.54;98481.09;5010933;28;1051;-73
2023/11/23 00:49:41;;;;;;;;;;;;;;;21.15;28.51;98481.38;4999676;28;1071;-74
2023/11/23 00:52:07;;;;;;;;;;;;;;;21.03;28.61;98479.13;5000116;28;953;-73
2023/11/23 00:54:37;;;;;;;;;;;;;;;20.97;28.85;98469.53;4999800;28;1233;-73
2023/11/23 00:57:06;;;;;;;;;;;;;;;21.11;28.82;98469.31;4976715;28;1002;-73
2023/11/23 00:59:32;;;;;;;;;;;;;;;21.18;28.66;98479.69;4960951;28;964;-73
2023/11/23 01:01:57;;;;;;;;;;;;;;;21.17;28.84;98473.25;4961029;28;1118;-73
2023/11/23 01:04:23;;;;;;;;;;;;;;;21.23;28.47;98471.50;4960779;28;1225;-73
2023/11/23 01:06:48;;;;;;;;;;;;;;;21.10;28.80;98470.53;4960371;28;1911;-73
2023/11/23 01:09:15;;;;;;;;;;;;;;;21.18;28.31;98474.03;4960800;28;1159;-72
2023/11/23 01:11:40;;;;;;;;;;;;;;;20.89;28.52;98473.72;4976937;28;953;-73
2023/11/23 01:14:08;;;;;;;;;;;;;;;20.97;29.03;98470.34;4976948;28;1147;-74
2023/11/23 01:16:33;;;;;;;;;;;;;;;21.24;28.64;98470.31;4960804;28;1019;-73
2023/11/23 01:18:59;;;;;;;;;;;;;;;21.37;28.47;98472.53;4960797;28;934;-73
2023/11/23 01:21:24;;;;;;;;;;;;;;;21.37;28.46;98486.69;4991563;28;874;-73
2023/11/23 01:23:50;;;;;;;;;;;;;;;21.36;28.33;98479.44;4996033;28;1223;-73
2023/11/23 01:26:16;;;;;;;;;;;;;;;21.47;28.17;98485.69;4995653;28;1979;-73
2023/11/23 01:28:42;;;;;;;;;;;;;;;21.32;28.00;98496.47;5027916;28;890;-73
2023/11/23 01:31:09;;;;;;;;;;;;;;;21.02;28.33;98488.84;5003597;28;1163;-73
2023/11/23 01:33:34;;;;;;;;;;;;;;;21.11;28.59;98491.16;5019644;28;987;-72
2023/11/23 01:36:00;;;;;;;;;;;;;;;21.05;28.53;98496.50;5019980;28;1284;-74
2023/11/23 01:38:26;;;;;;;;;;;;;;;21.18;28.40;98503.13;5020021;28;1239;-73
2023/11/23 01:40:54;;;;;;;;;;;;;;;21.35;28.20;98494.78;5003298;28;1143;-73
2023/11/23 01:43:20;;;;;;;;;;;;;;;21.05;28.99;98500.13;5003603;28;1582;-74
2023/11/23 01:45:45;;;;;;;;;;;;;;;20.96;29.06;98504.72;5003264;28;1961;-73
2023/11/23 01:48:11;;;;;;;;;;;;;;;21.02;28.58;98494.50;5003314;28;1266;-73
2023/11/23 01:50:37;;;;;;;;;;;;;;;20.99;28.54;98496.19;5019573;28;1246;-72
2023/11/23 01:53:03;;;;;;;;;;;;;;;20.74;29.09;98496.56;5019406;28;854;-72
2023/11/23 01:55:29;;;;;;;;;;;;;;;20.55;29.11;98509.38;4979050;28;1258;-74
2023/11/23 01:57:55;;;;;;;;;;;;;;;21.03;28.74;98515.91;4963114;28;1058;-73
2023/11/23 02:00:24;;;;;;;;;;;;;;;21.23;28.39;98511.13;4940344;28;1152;-73
2023/11/23 02:02:50;;;;;;;;;;;;;;;21.14;28.62;98519.41;4940553;28;1133;-73
2023/11/23 02:05:15;;;;;;;;;;;;;;;21.05;28.36;98524.78;4940214;28;1903;-73
2023/11/23 02:07:41;;;;;;;;;;;;;;;20.85;28.52;98526.72;4940314;28;1093;-73
2023/11/23 02:10:06;;;;;;;;;;;;;;;21.05;28.36;98522.75;4924604;28;1144;-73
2023/11/23 02:12:32;;;;;;;;;;;;;;;21.00;28.69;98519.63;4956271;28;1281;-73
2023/11/23 02:14:58;;;;;;;;;;;;;;;21.18;28.62;98520.13;4940214;29;1155;-73
2023/11/23 02:17:24;;;;;;;;;;;;;;;21.44;28.22;98514.84;4936794;29;1205;-73
2023/11/23 02:19:50;;;;;;;;;;;;;;;20.71;28.90;98520.03;4921060;29;1019;-73
2023/11/23 02:22:16;;;;;;;;;;;;;;;20.60;29.07;98536.38;4937040;29;984;-73
2023/11/23 02:24:43;;;;;;;;;;;;;;;20.55;29.03;98539.66;4917665;29;1973;-73
2023/11/23 02:27:08;;;;;;;;;;;;;;;20.85;28.86;98543.69;4932244;29;1137;-74
2023/11/23 02:29:34;;;;;;;;;;;;;;;21.05;28.72;98539.72;4936792;29;1245;-73
2023/11/23 02:32:06;;;;;;;;;;;;;;;21.26;28.19;98532.13;4936379;29;1252;-73
2023/11/23 02:34:32;;;;;;;;;;;;;;;21.38;28.15;98539.22;4898608;29;933;-73
2023/11/23 02:36:57;;;;;;;;;;;;;;;21.39;28.21;98540.81;4883221;29;1107;-73
2023/11/23 02:39:24;;;;;;;;;;;;;;;21.18;28.12;98537.09;4883392;29;983;-74
2023/11/23 02:41:49;;;;;;;;;;;;;;;21.18;28.20;98537.09;4883341;29;932;-73
2023/11/23 02:44:15;;;;;;;;;;;;;;;21.30;27.66;98545.03;4883180;29;1196;-73
2023/11/23 02:46:41;;;;;;;;;;;;;;;20.90;28.56;98543.22;4867732;29;1915;-73
2023/11/23 02:49:06;;;;;;;;;;;;;;;20.80;28.84;98534.47;4864420;29;1051;-73
2023/11/23 02:51:32;;;;;;;;;;;;;;;20.94;28.68;98532.66;4864471;29;1039;-73
2023/11/23 02:53:57;;;;;;;;;;;;;;;21.29;28.25;98543.38;4866984;29;1142;-73
2023/11/23 02:56:23;;;;;;;;;;;;;;;21.13;28.33;98551.72;4916166;29;1601;-74
2023/11/23 02:58:49;;;;;;;;;;;;;;;21.24;28.10;98541.06;4939578;29;1024;-73
2023/11/23 03:01:15;;;;;;;;;;;;;;;21.44;27.88;98529.00;4924076;28;1275;-73
2023/11/23 03:03:40;;;;;;;;;;;;;;;21.13;28.07;98546.06;4955541;28;1059;-72
2023/11/23 03:06:07;;;;;;;;;;;;;;;21.18;27.66;98554.06;4967998;28;2012;-74
2023/11/23 03:08:32;;;;;;;;;;;;;;;20.93;27.94;98548.00;4978130;28;1297;-73
2023/11/23 03:10:58;;;;;;;;;;;;;;;20.98;27.77;98545.50;4978035;28;1130;-74
2023/11/23 03:13:24;;;;;;;;;;;;;;;20.97;28.48;98543.88;4978058;28;1236;-73
2023/11/23 03:15:50;;;;;;;;;;;;;;;21.03;28.13;98541.38;4978156;28;929;-73
2023/11/23 03:18:16;;;;;;;;;;;;;;;21.22;27.85;98542.69;4978454;28;1124;-73
2023/11/23 03:20:41;;;;;;;;;;;;;;;21.23;27.93;98550.75;5013001;28;1244;-73
2023/11/23 03:23:07;;;;;;;;;;;;;;;21.37;27.38;98554.63;5018363;28;1134;-73
2023/11/23 03:25:33;;;;;;;;;;;;;;;21.05;27.99;98544.59;5017959;28;1898;-74
2023/11/23 03:27:58;;;;;;;;;;;;;;;20.91;28.01;98558.94;5018044;28;1026;-73
2023/11/23 03:30:24;;;;;;;;;;;;;;;20.74;28.08;98564.44;5001895;28;1088;-73
2023/11/23 03:32:51;;;;;;;;;;;;;;;21.06;28.79;98571.66;5001849;28;1187;-73
2023/11/23 03:35:17;;;;;;;;;;;;;;;21.67;28.81;98573.53;5035507;28;915;-73
2023/11/23 03:37:42;;;;;;;;;;;;;;;21.62;28.65;98571.97;5018238;28;991;-73
2023/11/23 03:40:09;;;;;;;;;;;;;;;21.00;28.80;98576.19;5001774;28;1144;-73
2023/11/23 03:42:35;;;;;;;;;;;;;;;20.97;28.77;98577.03;5017858;28;1021;-73
2023/11/23 03:45:00;;;;;;;;;;;;;;;20.74;29.41;98570.09;5002717;28;1984;-73
2023/11/23 03:47:25;;;;;;;;;;;;;;;21.09;29.26;98567.97;5005550;28;1125;-73
2023/11/23 03:49:51;;;;;;;;;;;;;;;21.27;28.96;98571.31;5021823;28;1030;-73
2023/11/23 03:52:17;;;;;;;;;;;;;;;21.32;28.87;98570.84;5039717;28;911;-73
2023/11/23 03:54:42;;;;;;;;;;;;;;;21.45;28.98;98567.41;5039516;28;1029;-74
2023/11/23 03:57:08;;;;;;;;;;;;;;;21.50;28.48;98570.56;5021753;28;1772;-73
2023/11/23 03:59:33;;;;;;;;;;;;;;;20.78;29.26;98570.88;5001192;28;1072;-74
2023/11/23 04:01:59;;;;;;;;;;;;;;;21.04;28.98;98568.47;5000962;28;1037;-73
2023/11/23 04:04:24;;;;;;;;;;;;;;;21.16;29.08;98578.38;5000354;28;999;-73
2023/11/23 04:06:50;;;;;;;;;;;;;;;21.35;29.00;98582.53;5000778;28;1914;-73
2023/11/23 04:09:18;;;;;;;;;;;;;;;21.49;28.89;98571.78;5017106;28;954;-73
2023/11/23 04:11:44;;;;;;;;;;;;;;;21.53;28.98;98577.41;5016699;28;1127;-73
2023/11/23 04:14:09;;;;;;;;;;;;;;;21.55;28.81;98574.91;4984198;28;921;-74
2023/11/23 04:16:36;;;;;;;;;;;;;;;20.70;29.83;98575.00;5000410;28;972;-74
2023/11/23 04:19:01;;;;;;;;;;;;;;;21.10;29.13;98569.56;5000588;28;930;-74
2023/11/23 04:21:27;;;;;;;;;;;;;;;20.96;29.42;98567.75;4984170;28;1250;-74
2023/11/23 04:23:52;;;;;;;;;;;;;;;20.71;29.80;98553.97;4984221;28;1103;-74
2023/11/23 04:26:18;;;;;;;;;;;;;;;21.02;29.75;98563.22;5016318;28;1985;-74
2023/11/23 04:28:43;;;;;;;;;;;;;;;21.25;29.13;98562.47;5017053;28;783;-73
2023/11/23 04:31:09;;;;;;;;;;;;;;;21.31;29.17;98568.47;5016016;28;914;-74
2023/11/23 04:33:35;;;;;;;;;;;;;;;21.16;29.37;98576.34;5036056;28;1123;-74
2023/11/23 04:36:00;;;;;;;;;;;;;;;21.23;29.07;98584.72;5003368;28;1238;-74
2023/11/23 04:38:26;;;;;;;;;;;;;;;21.25;28.91;98587.94;5036017;28;1058;-73
2023/11/23 04:40:52;;;;;;;;;;;;;;;21.03;29.47;98603.63;5036152;28;966;-73
2023/11/23 04:43:17;;;;;;;;;;;;;;;20.96;29.45;98606.56;5019609;28;999;-73
2023/11/23 04:45:43;;;;;;;;;;;;;;;21.21;29.12;98609.81;5019965;28;1967;-73
2023/11/23 04:48:08;;;;;;;;;;;;;;;21.15;29.52;98617.19;5019689;28;1004;-73
2023/11/23 04:50:36;;;;;;;;;;;;;;;21.19;29.46;98617.97;5019883;28;989;-73
2023/11/23 04:53:02;;;;;;;;;;;;;;;21.49;29.11;98619.13;4996562;28;950;-73
2023/11/23 04:55:28;;;;;;;;;;;;;;;21.14;29.35;98614.78;4980283;28;1275;-74
2023/11/23 04:57:53;;;;;;;;;;;;;;;21.24;29.15;98620.31;4947938;28;1022;-73
2023/11/23 05:00:24;;;;;;;;;;;;;;;20.98;29.34;98621.06;4980063;28;1048;-73
2023/11/23 05:02:50;;;;;;;;;;;;;;;20.76;29.61;98617.75;4996431;28;1436;-73
2023/11/23 05:05:16;;;;;;;;;;;;;;;21.04;29.00;98640.00;4980027;28;1988;-73
2023/11/23 05:07:41;;;;;;;;;;;;;;;20.67;29.64;98598.47;4980157;28;1045;-73
2023/11/23 05:10:10;;;;;;;;;;;;;;;21.29;28.91;98644.47;4980429;28;1034;-73
2023/11/23 05:12:35;;;;;;;;;;;;;;;21.35;28.90;98641.97;4996237;28;987;-74
2023/11/23 05:15:01;;;;;;;;;;;;;;;21.30;29.15;98634.81;4980089;28;934;-73
2023/11/23 05:17:27;;;;;;;;;;;;;;;21.27;29.06;98642.06;4976662;28;1080;-73
2023/11/23 05:19:52;;;;;;;;;;;;;;;21.09;28.93;98635.88;4976593;28;984;-73
2023/11/23 05:22:18;;;;;;;;;;;;;;;21.13;28.55;98642.28;4976278;28;800;-73
2023/11/23 05:24:43;;;;;;;;;;;;;;;21.05;28.47;98650.09;4963446;28;1996;-73
2023/11/23 05:27:09;;;;;;;;;;;;;;;21.21;29.01;98655.09;4979469;28;1285;-73
2023/11/23 05:29:36;;;;;;;;;;;;;;;21.14;29.33;98654.41;4979942;28;1318;-73
2023/11/23 05:32:01;;;;;;;;;;;;;;;21.26;29.01;98654.63;4995991;28;815;-73
2023/11/23 05:34:27;;;;;;;;;;;;;;;21.07;29.08;98658.13;4963467;28;1195;-73
2023/11/23 05:36:52;;;;;;;;;;;;;;;21.26;28.69;98657.47;4979335;28;926;-74
2023/11/23 05:39:18;;;;;;;;;;;;;;;21.32;28.79;98661.44;4995779;28;758;-73
2023/11/23 05:41:43;;;;;;;;;;;;;;;21.30;28.38;98652.59;4995629;28;897;-73
2023/11/23 05:44:09;;;;;;;;;;;;;;;21.27;28.09;98653.41;4995266;28;1245;-73
2023/11/23 05:46:34;;;;;;;;;;;;;;;21.11;28.57;98653.22;4995302;28;1967;-72
2023/11/23 05:49:00;;;;;;;;;;;;;;;21.08;28.69;98656.91;5013470;28;823;-73
2023/11/23 05:51:27;;;;;;;;;;;;;;;20.86;29.13;98667.72;5002193;28;810;-73
2023/11/23 05:53:53;;;;;;;;;;;;;;;21.22;28.55;98673.69;5018758;28;1306;-73
2023/11/23 05:56:19;;;;;;;;;;;;;;;21.34;28.39;98669.50;5034527;28;800;-73
2023/11/23 05:58:44;;;;;;;;;;;;;;;20.84;28.92;98663.72;4995159;28;1134;-73
2023/11/23 06:01:10;;;;;;;;;;;;;;;20.98;28.14;98657.84;4962814;28;1307;-74
2023/11/23 06:03:37;;;;;;;;;;;;;;;20.88;28.47;98648.31;4995129;28;788;-73
2023/11/23 06:06:03;;;;;;;;;;;;;;;20.69;29.21;98649.75;4994980;28;1985;-73
2023/11/23 06:08:29;;;;;;;;;;;;;;;21.02;28.60;98659.41;4978846;28;912;-73
2023/11/23 06:10:54;;;;;;;;;;;;;;;21.20;28.40;98678.97;4943319;28;1152;-73
2023/11/23 06:13:20;;;;;;;;;;;;;;;21.30;28.18;98675.22;4959519;28;1265;-73
2023/11/23 06:15:45;;;;;;;;;;;;;;;21.47;28.00;98662.03;4975469;28;878;-73
2023/11/23 06:18:11;;;;;;;;;;;;;;;21.47;27.95;98661.22;4959180;28;784;-73
2023/11/23 06:20:36;;;;;;;;;;;;;;;21.31;27.94;98665.50;4957299;28;896;-73
2023/11/23 06:23:02;;;;;;;;;;;;;;;21.06;27.97;98665.03;4940128;29;1164;-73
2023/11/23 06:25:27;;;;;;;;;;;;;;;20.96;28.12;98674.47;4940275;29;1987;-72
2023/11/23 06:27:53;;;;;;;;;;;;;;;21.25;28.06;98678.50;4956007;28;945;-74
2023/11/23 06:30:19;;;;;;;;;;;;;;;20.98;28.62;98672.00;4988703;28;926;-73
2023/11/23 06:32:45;;;;;;;;;;;;;;;21.08;28.60;98668.22;5010683;28;1362;-73
2023/11/23 06:35:10;;;;;;;;;;;;;;;21.21;28.57;98671.28;4994712;28;975;-73
2023/11/23 06:37:36;;;;;;;;;;;;;;;21.38;28.17;98686.44;4994655;28;957;-73
2023/11/23 06:40:03;;;;;;;;;;;;;;;21.25;27.88;98684.16;5010947;28;834;-74
2023/11/23 06:42:28;;;;;;;;;;;;;;;20.92;28.48;98682.19;4992796;28;892;-72
2023/11/23 06:44:54;;;;;;;;;;;;;;;21.04;28.35;98678.81;4997912;28;1993;-74
2023/11/23 06:47:19;;;;;;;;;;;;;;;21.19;28.14;98688.72;4997977;28;1127;-73
2023/11/23 06:49:45;;;;;;;;;;;;;;;21.20;28.15;98687.47;4981526;28;884;-73
2023/11/23 06:52:10;;;;;;;;;;;;;;;21.25;28.09;98694.69;4997983;28;920;-73
2023/11/23 06:54:36;;;;;;;;;;;;;;;21.50;27.56;98688.66;4997785;28;1269;-73
2023/11/23 06:57:02;;;;;;;;;;;;;;;21.27;27.72;98690.19;5014105;28;826;-73
2023/11/23 06:59:28;;;;;;;;;;;;;;;20.84;27.99;98683.53;4997725;28;791;-73
2023/11/23 07:01:53;;;;;;;;;;;;;;;20.86;28.38;98686.72;5013925;28;931;-73
2023/11/23 07:04:21;;;;;;;;;;;;;;;20.80;28.53;98677.91;4997617;28;789;-73
2023/11/23 07:06:46;;;;;;;;;;;;;;;20.97;28.54;98678.88;5013658;28;1973;-73
2023/11/23 07:09:13;;;;;;;;;;;;;;;21.46;27.79;98676.63;5016031;28;794;-73
2023/11/23 07:11:40;;;;;;;;;;;;;;;21.40;28.11;98666.97;5002018;28;724;-73
2023/11/23 07:14:06;;;;;;;;;;;;;;;21.02;28.14;98661.44;5035650;28;723;-74
2023/11/23 07:16:31;;;;;;;;;;;;;;;21.54;27.55;98672.44;5035558;28;695;-74
2023/11/23 07:18:57;;;;;;;;;;;;;;;21.21;28.06;98676.94;5018415;28;716;-73
2023/11/23 07:21:22;;;;;;;;;;;;;;;20.96;28.30;98669.59;5022333;28;1231;-73
2023/11/23 07:23:48;;;;;;;;;;;;;;;21.06;28.23;98679.19;5039829;28;747;-73
2023/11/23 07:26:13;;;;;;;;;;;;;;;20.88;28.56;98676.59;5005711;28;1906;-73
2023/11/23 07:28:39;;;;;;;;;;;;;;;21.10;28.28;98677.09;5021848;28;831;-74
2023/11/23 07:31:05;;;;;;;;;;;;;;;21.16;28.35;98672.56;5039980;28;834;-73
2023/11/23 07:33:34;;;;;;;;;;;;;;;21.18;28.22;98672.94;5020827;28;1014;-73
2023/11/23 07:36:05;;;;;;;;;;;;;;;21.33;27.53;98663.03;5006431;28;1131;-73
2023/11/23 07:38:33;;;;;;;;;;;;;;;21.15;27.81;98668.13;5039713;28;759;-73
2023/11/23 07:41:01;;;;;;;;;;;;;;;20.66;28.62;98663.94;5021081;28;808;-73
2023/11/23 07:43:26;;;;;;;;;;;;;;;21.12;28.50;98662.53;5020780;28;821;-74
2023/11/23 07:45:52;;;;;;;;;;;;;;;21.43;27.86;98671.81;5020806;28;1977;-73
2023/11/23 07:48:18;;;;;;;;;;;;;;;21.27;28.16;98664.72;5004220;28;1147;-73
2023/11/23 07:50:43;;;;;;;;;;;;;;;21.46;27.68;98660.44;5020635;28;912;-73
2023/11/23 07:53:09;;;;;;;;;;;;;;;21.29;27.83;98650.94;5037197;28;833;-74
2023/11/23 07:55:34;;;;;;;;;;;;;;;21.22;27.35;98645.38;5037407;28;1171;-73
2023/11/23 07:58:00;;;;;;;;;;;;;;;20.99;27.65;98653.81;5020322;28;724;-73
2023/11/23 08:00:25;;;;;;;;;;;;;;;20.99;28.04;98653.81;5020413;28;826;-73
2023/11/23 08:02:53;;;;;;;;;;;;;;;21.03;28.31;98660.22;5020245;28;779;-73
2023/11/23 08:05:19;;;;;;;;;;;;;;;20.83;28.73;98657.25;5003855;28;1902;-73
2023/11/23 08:07:46;;;;;;;;;;;;;;;21.16;28.25;98666.91;5003676;28;1579;-73
2023/11/23 08:10:15;;;;;;;;;;;;;;;21.37;27.77;98656.53;5019988;28;744;-74
2023/11/23 08:12:43;;;;;;;;;;;;;;;21.31;27.87;98657.00;5025432;28;957;-73
2023/11/23 08:15:12;;;;;;;;;;;;;;;21.36;27.69;98666.25;5021165;28;1013;-73
2023/11/23 08:17:38;;;;;;;;;;;;;;;21.37;27.31;98662.19;5021233;28;784;-74
2023/11/23 08:20:12;;;;;;;;;;;;;;;21.15;27.51;98648.31;5004999;28;1151;-73
2023/11/23 08:22:38;;;;;;;;;;;;;;;21.10;28.27;98643.16;4989697;28;1254;-74
2023/11/23 08:25:04;;;;;;;;;;;;;;;21.32;27.81;98638.78;5038778;28;1906;-74
2023/11/23 08:27:30;;;;;;;;;;;;;;;21.16;28.02;98641.44;5004915;28;1117;-72
2023/11/23 08:29:55;;;;;;;;;;;;;;;20.92;28.35;98636.94;5036899;28;1100;-73
2023/11/23 08:32:21;;;;;;;;;;;;;;;20.91;28.05;98636.13;5004845;28;1194;-73
2023/11/23 08:34:48;;;;;;;;;;;;;;;20.93;28.23;98638.53;5021068;28;743;-73
2023/11/23 08:37:14;;;;;;;;;;;;;;;20.92;27.82;98648.25;5004597;28;727;-73
2023/11/23 08:39:40;;;;;;;;;;;;;;;20.92;28.45;98642.59;4980597;28;1081;-73
2023/11/23 08:42:05;;;;;;;;;;;;;;;21.10;28.17;98640.31;4997264;28;855;-73
2023/11/23 08:44:31;;;;;;;;;;;;;;;21.35;27.96;98641.97;4980459;28;1153;-73
2023/11/23 08:46:57;;;;;;;;;;;;;;;21.18;27.85;98636.13;4980390;28;1975;-73
2023/11/23 08:49:25;;;;;;;;;;;;;;;21.18;27.85;98632.50;4996809;28;755;-73
2023/11/23 08:51:51;;;;;;;;;;;;;;;21.10;27.93;98631.81;4941745;29;1100;-74
2023/11/23 08:54:17;;;;;;;;;;;;;;;21.01;27.92;98623.06;4942137;29;836;-73
2023/11/23 08:56:43;;;;;;;;;;;;;;;21.10;28.04;98619.72;4941667;29;958;-73
2023/11/23 08:59:10;;;;;;;;;;;;;;;21.32;28.02;98635.16;4941324;29;925;-73
2023/11/23 09:01:36;;;;;;;;;;;;;;;21.16;27.88;98621.63;4941650;28;1201;-74
2023/11/23 09:04:01;;;;;;;;;;;;;;;21.19;27.85;98623.63;4957628;28;779;-73
2023/11/23 09:06:27;;;;;;;;;;;;;;;21.02;28.24;98619.00;4941058;29;1958;-73
2023/11/23 09:08:52;;;;;;;;;;;;;;;21.19;27.68;98619.97;4957804;28;756;-73
2023/11/23 09:11:18;;;;;;;;;;;;;;;20.92;28.35;98603.78;4941475;29;1241;-73
2023/11/23 09:13:43;;;;;;;;;;;;;;;21.04;28.16;98600.38;4941337;28;839;-73
2023/11/23 09:16:11;;;;;;;;;;;;;;;21.39;27.95;98594.63;4927846;28;1111;-73
2023/11/23 09:18:36;;;;;;;;;;;;;;;21.24;27.92;98592.00;4976588;28;895;-73
2023/11/23 09:21:02;;;;;;;;;;;;;;;21.09;28.14;98599.09;4976904;28;760;-73
2023/11/23 09:23:27;;;;;;;;;;;;;;;20.89;28.38;98586.88;4991713;28;916;-74
2023/11/23 09:25:53;;;;;;;;;;;;;;;21.04;27.83;98596.75;4996787;28;1967;-74
2023/11/23 09:28:19;;;;;;;;;;;;;;;20.65;28.53;98583.97;4997232;28;716;-73
2023/11/23 09:30:44;;;;;;;;;;;;;;;21.20;28.13;98581.97;4980844;28;759;-73
2023/11/23 09:33:11;;;;;;;;;;;;;;;21.18;28.12;98582.38;4997906;28;782;-73
2023/11/23 09:35:37;;;;;;;;;;;;;;;21.24;28.00;98575.03;5013088;28;1133;-73
2023/11/23 09:38:04;;;;;;;;;;;;;;;20.73;28.62;98568.50;4997141;28;1120;-73
2023/11/23 09:40:29;;;;;;;;;;;;;;;21.02;28.26;98573.72;4996645;28;895;-73
2023/11/23 09:42:55;;;;;;;;;;;;;;;21.02;28.37;98568.88;4996008;28;736;-73
2023/11/23 09:45:22;;;;;;;;;;;;;;;20.98;28.69;98568.13;4996792;28;1890;-72
2023/11/23 09:47:51;;;;;;;;;;;;;;;21.11;28.32;98564.72;4996805;28;887;-74
2023/11/23 09:50:17;;;;;;;;;;;;;;;21.10;28.32;98566.75;4996565;28;739;-73
2023/11/23 09:52:43;;;;;;;;;;;;;;;20.91;28.26;98565.41;4996723;28;750;-73
2023/11/23 09:55:09;;;;;;;;;;;;;;;20.89;28.25;98561.41;4996479;28;748;-73
2023/11/23 09:57:35;;;;;;;;;;;;;;;20.87;28.10;98553.34;4997621;28;767;-73
2023/11/23 10:00:08;;;;;;;;;;;;;;;21.14;28.29;98556.19;4996322;28;970;-74
2023/11/23 10:02:35;;;;;;;;;;;;;;;20.81;28.87;98558.69;4981676;28;816;-73
2023/11/23 10:05:01;;;;;;;;;;;;;;;21.00;28.42;98547.91;4996232;28;1934;-74
2023/11/23 10:07:26;;;;;;;;;;;;;;;21.18;28.38;98548.41;5015234;28;1231;-73
2023/11/23 10:09:53;;;;;;;;;;;;;;;21.16;28.17;98550.09;5015797;28;1282;-74
2023/11/23 10:12:20;;;;;;;;;;;;;;;21.12;28.08;98538.00;5016103;28;1781;-73
2023/11/23 10:14:45;;;;;;;;;;;;;;;20.93;28.08;98533.84;4998218;28;1128;-73
2023/11/23 10:17:11;;;;;;;;;;;;;;;21.12;28.21;98527.50;5014780;28;770;-73
2023/11/23 10:19:36;;;;;;;;;;;;;;;21.37;27.75;98515.00;4997184;28;1428;-73
2023/11/23 10:22:03;;;;;;;;;;;;;;;21.34;28.10;98513.81;5014778;28;751;-73
2023/11/23 10:24:29;;;;;;;;;;;;;;;21.12;28.09;98504.84;4998260;28;1224;-73
2023/11/23 10:26:55;;;;;;;;;;;;;;;21.01;28.22;98505.03;4997834;28;1906;-73
2023/11/23 10:29:28;;;;;;;;;;;;;;;20.79;28.82;98487.59;4998227;28;1100;-73
2023/11/23 10:31:59;;;;;;;;;;;;;;;21.06;28.53;98483.94;5014264;28;767;-73
2023/11/23 10:34:25;;;;;;;;;;;;;;;21.32;28.06;98480.28;4998290;28;897;-73
2023/11/23 10:36:50;;;;;;;;;;;;;;;21.33;27.87;98470.56;4998147;28;728;-73
2023/11/23 10:39:18;;;;;;;;;;;;;;;21.17;28.19;98453.44;4998024;28;806;-72
2023/11/23 10:41:44;;;;;;;;;;;;;;;21.11;28.15;98455.16;5014116;28;731;-72
2023/11/23 10:44:10;;;;;;;;;;;;;;;20.89;28.17;98454.72;4997916;28;806;-74
2023/11/23 10:46:39;;;;;;;;;;;;;;;21.27;28.17;98437.50;5012445;28;1987;-73
2023/11/23 10:49:08;;;;;;;;;;;;;;;20.98;28.41;98445.66;4999241;28;839;-74
2023/11/23 10:51:34;;;;;;;;;;;;;;;21.29;28.03;98438.66;5016354;28;851;-72
2023/11/23 10:53:59;;;;;;;;;;;;;;;21.24;28.19;98432.69;5014747;28;850;-73
2023/11/23 10:56:28;;;;;;;;;;;;;;;20.98;28.45;98432.31;5016578;28;790;-73
2023/11/23 10:58:58;;;;;;;;;;;;;;;20.90;28.23;98430.06;5015224;28;775;-73
2023/11/23 11:01:24;;;;;;;;;;;;;;;20.89;28.67;98434.13;5015253;28;791;-73
2023/11/23 11:03:49;;;;;;;;;;;;;;;21.18;28.22;98429.56;5014894;28;897;-72
2023/11/23 11:06:16;;;;;;;;;;;;;;;21.14;28.68;98428.00;5014754;28;2009;-72
2023/11/23 11:08:45;;;;;;;;;;;;;;;21.16;28.55;98423.53;5015439;28;863;-73
2023/11/23 11:11:12;;;;;;;;;;;;;;;20.95;28.81;98416.22;5015390;28;774;-73
2023/11/23 11:13:44;;;;;;;;;;;;;;;21.09;28.37;98418.03;5015283;28;740;-73
2023/11/23 11:16:11;;;;;;;;;;;;;;;20.98;28.64;98417.38;5015387;28;787;-73
2023/11/23 11:18:38;;;;;;;;;;;;;;;21.22;28.58;98406.84;5015229;28;736;-73
2023/11/23 11:21:13;;;;;;;;;;;;;;;21.29;28.02;98407.50;4997333;28;908;-73
2023/11/23 11:23:45;;;;;;;;;;;;;;;21.20;28.28;98398.81;4997214;28;1408;-73
2023/11/23 11:26:18;;;;;;;;;;;;;;;21.33;28.13;98408.28;5013719;28;1898;-73
2023/11/23 11:28:50;;;;;;;;;;;;;;;21.27;28.32;98404.31;5014003;28;849;-73
2023/11/23 11:31:18;;;;;;;;;;;;;;;21.14;28.16;98394.88;5013987;28;797;-73
2023/11/23 11:33:44;;;;;;;;;;;;;;;20.86;28.23;98395.38;4997279;28;866;-73
2023/11/23 11:36:10;;;;;;;;;;;;;;;20.65;29.03;98386.03;4997121;28;799;-73
2023/11/23 11:38:36;;;;;;;;;;;;;;;20.96;28.97;98389.53;5013339;28;1387;-73
2023/11/23 11:41:03;;;;;;;;;;;;;;;21.13;28.50;98390.44;4996922;28;805;-73
2023/11/23 11:43:29;;;;;;;;;;;;;;;21.41;27.89;98386.31;4997459;28;1143;-73
2023/11/23 11:45:55;;;;;;;;;;;;;;;21.20;28.33;98389.53;4996997;28;1902;-73
2023/11/23 11:48:21;;;;;;;;;;;;;;;21.07;28.37;98389.34;5013781;28;794;-74
2023/11/23 11:50:55;;;;;;;;;;;;;;;21.00;28.31;98393.09;5012897;28;1764;-75
2023/11/23 11:53:21;;;;;;;;;;;;;;;20.99;28.26;98393.53;5007297;28;1696;-73
2023/11/23 11:55:49;;;;;;;;;;;;;;;20.86;28.64;98389.72;5014338;28;1617;-73
2023/11/23 11:58:15;;;;;;;;;;;;;;;20.86;28.83;98384.06;5014490;28;1204;-74
2023/11/23 12:00:44;;;;;;;;;;;;;;;21.30;28.35;98368.75;5015628;28;931;-73
2023/11/23 12:03:09;;;;;;;;;;;;;;;21.06;28.91;98371.56;5015812;28;1270;-74
2023/11/23 12:05:36;;;;;;;;;;;;;;;21.17;28.40;98370.56;5015577;28;1968;-74
2023/11/23 12:08:02;;;;;;;;;;;;;;;21.31;28.53;98359.81;5021402;28;950;-74
2023/11/23 12:10:37;;;;;;;;;;;;;;;21.08;28.66;98359.81;5019425;28;909;-74
2023/11/23 12:13:03;;;;;;;;;;;;;;;20.79;29.17;98360.34;5017907;28;901;-74
2023/11/23 12:15:29;;;;;;;;;;;;;;;20.90;29.07;98356.53;5000960;28;1155;-73
2023/11/23 12:17:56;;;;;;;;;;;;;;;20.93;29.16;98347.94;5017003;28;906;-73
2023/11/23 12:20:22;;;;;;;;;;;;;;;21.18;28.53;98349.53;5017093;28;1048;-75
2023/11/23 12:22:48;;;;;;;;;;;;;;;21.17;29.00;98345.09;5016821;28;931;-74
2023/11/23 12:25:17;;;;;;;;;;;;;;;21.00;28.99;98338.56;5000088;28;1906;-74
2023/11/23 12:27:46;;;;;;;;;;;;;;;21.06;28.67;98331.16;5016502;28;767;-74
2023/11/23 12:30:15;;;;;;;;;;;;;;;20.91;28.72;98332.66;5000253;28;1342;-73
2023/11/23 12:32:41;;;;;;;;;;;;;;;21.25;28.58;98321.91;5016381;28;846;-75
2023/11/23 12:35:09;;;;;;;;;;;;;;;21.08;28.72;98323.03;5016331;28;830;-74
2023/11/23 12:37:34;;;;;;;;;;;;;;;21.43;28.36;98318.72;5000068;28;1244;-74
2023/11/23 12:40:00;;;;;;;;;;;;;;;21.49;28.35;98304.84;5016100;28;747;-74
2023/11/23 12:42:25;;;;;;;;;;;;;;;21.45;28.39;98301.28;5016511;28;906;-73
2023/11/23 12:44:51;;;;;;;;;;;;;;;20.86;29.39;98299.22;4999772;28;876;-75
2023/11/23 12:47:16;;;;;;;;;;;;;;;20.94;29.02;98300.69;5016066;28;1910;-74
2023/11/23 12:49:45;;;;;;;;;;;;;;;20.96;28.85;98298.22;5016249;28;873;-74
2023/11/23 12:52:10;;;;;;;;;;;;;;;20.68;29.39;98300.34;5016201;28;1237;-74
2023/11/23 12:54:36;;;;;;;;;;;;;;;20.79;29.08;98289.63;5013785;28;862;-74
2023/11/23 12:57:01;;;;;;;;;;;;;;;20.99;28.74;98286.06;5000754;28;1428;-74